Time;durP1;ratioP1;P1;durP2;ratioP2;P2;SDS_P1;SDS_P2;PMS_P1;PMS_P2;Temp;Humidity;BMP_temperature;BMP_pressure;BME280_temperature;BME280_humidity;BME280_pressure;Samples;Min_cycle;Max_cycle;Signal;HPM_P1;HPM_P2
2023/04/29 00:01:44;;;;;;;44.40;21.42;;;;;;;-143.48;100.00;118439.88;5055876;28;20023;-68
2023/04/29 00:04:09;;;;;;;39.75;20.88;;;;;;;-143.48;100.00;118439.88;5037783;28;20364;-68
2023/04/29 00:06:34;;;;;;;42.83;20.73;;;;;;;-143.48;100.00;118439.88;5037898;28;20055;-68
2023/04/29 00:08:59;;;;;;;46.28;21.08;;;;;;;-143.48;100.00;118439.88;5055569;28;20017;-68
2023/04/29 00:11:25;;;;;;;43.25;20.75;;;;;;;-143.48;100.00;118439.88;5055264;28;20116;-69
2023/04/29 00:13:50;;;;;;;41.85;19.75;;;;;;;-143.48;100.00;118439.88;5037302;28;20048;-68
2023/04/29 00:16:15;;;;;;;46.47;20.02;;;;;;;-143.48;100.00;118439.88;5055519;28;20045;-68
2023/04/29 00:18:41;;;;;;;41.00;18.50;;;;;;;-143.48;100.00;118439.88;5055139;28;20099;-68
2023/04/29 00:21:06;;;;;;;47.83;21.08;;;;;;;-143.48;100.00;118439.88;5055334;28;20079;-68
2023/04/29 00:23:32;;;;;;;42.00;20.73;;;;;;;-143.48;100.00;118439.88;5037518;28;20029;-69
2023/04/29 00:25:58;;;;;;;38.38;18.83;;;;;;;-143.48;100.00;118439.88;5055324;28;20025;-68
2023/04/29 00:28:23;;;;;;;37.63;18.15;;;;;;;-143.48;100.00;118439.88;5055171;28;20122;-70
2023/04/29 00:30:48;;;;;;;35.17;18.05;;;;;;;-143.48;100.00;118439.88;5037287;28;20078;-68
2023/04/29 00:33:13;;;;;;;45.22;19.00;;;;;;;-143.48;100.00;118439.88;5037093;28;20103;-68
2023/04/29 00:35:39;;;;;;;35.80;17.38;;;;;;;-143.48;100.00;118439.88;5054987;28;20452;-68
2023/04/29 00:38:04;;;;;;;39.45;17.48;;;;;;;-143.48;100.00;118439.88;5055010;28;20025;-69
2023/04/29 00:40:29;;;;;;;37.60;17.75;;;;;;;-143.48;100.00;118439.88;5055140;28;20444;-69
2023/04/29 00:42:56;;;;;;;36.95;16.77;;;;;;;-143.48;100.00;118439.88;5054862;28;20032;-69
2023/04/29 00:45:21;;;;;;;35.53;16.58;;;;;;;-143.48;100.00;118439.88;5036742;28;20131;-69
2023/04/29 00:47:47;;;;;;;36.33;16.45;;;;;;;-143.48;100.00;118439.88;5036700;28;20514;-69
2023/04/29 00:50:12;;;;;;;30.42;16.73;;;;;;;-143.48;100.00;118439.88;5055216;28;20028;-69
2023/04/29 00:52:38;;;;;;;28.70;16.00;;;;;;;-143.48;100.00;118439.88;5054629;28;20056;-69
2023/04/29 00:55:06;;;;;;;31.45;15.93;;;;;;;-143.48;100.00;118439.88;5053977;28;20377;-69
2023/04/29 00:57:33;;;;;;;31.75;16.02;;;;;;;-143.48;100.00;118439.88;5054662;28;20025;-69
2023/04/29 00:59:59;;;;;;;34.85;16.00;;;;;;;-143.48;100.00;118439.88;5036487;28;20029;-68
2023/04/29 01:02:25;;;;;;;30.60;16.13;;;;;;;-143.48;100.00;118439.88;5036573;28;20031;-69
2023/04/29 01:04:50;;;;;;;33.45;15.80;;;;;;;-143.48;100.00;118439.88;5036459;28;20021;-69
2023/04/29 01:07:20;;;;;;;34.40;16.02;;;;;;;-143.48;100.00;118439.88;5054290;28;20052;-69
2023/04/29 01:10:00;;;;;;;31.80;16.73;;;;;;;-143.48;100.00;118439.88;5054225;28;20406;-69
2023/04/29 01:12:35;;;;;;;32.15;16.70;;;;;;;-143.48;100.00;118439.88;5054196;28;20021;-69
2023/04/29 01:15:09;;;;;;;35.83;17.00;;;;;;;-143.48;100.00;118439.88;5054613;28;20029;-69
2023/04/29 01:17:54;;;;;;;33.17;17.05;;;;;;;-143.48;100.00;118439.88;5036748;28;20353;-68
2023/04/29 01:20:22;;;;;;;32.33;16.38;;;;;;;-143.48;100.00;118439.88;5036261;28;20029;-68
2023/04/29 01:22:47;;;;;;;33.05;16.88;;;;;;;-143.48;100.00;118439.88;5054092;28;20016;-69
2023/04/29 01:25:13;;;;;;;28.60;16.13;;;;;;;-143.48;100.00;118439.88;5054367;28;20112;-68
2023/04/29 01:27:51;;;;;;;30.45;16.92;;;;;;;-143.48;100.00;118439.88;5053988;28;20036;-68
2023/04/29 01:30:34;;;;;;;30.50;15.82;;;;;;;-143.48;100.00;118439.88;5036351;28;20032;-68
2023/04/29 01:33:12;;;;;;;30.73;16.75;;;;;;;-143.48;100.00;118439.88;5054088;28;20074;-69
2023/04/29 01:36:16;;;;;;;32.70;16.40;;;;;;;-143.48;100.00;118439.88;5053970;28;20025;-69
2023/04/29 01:39:19;;;;;;;31.90;15.15;;;;;;;-143.48;100.00;118439.88;5036033;28;20215;-68
2023/04/29 01:41:59;;;;;;;33.65;15.90;;;;;;;-143.48;100.00;118439.88;5054271;28;20025;-68
2023/04/29 01:44:28;;;;;;;28.90;16.00;;;;;;;-143.48;100.00;118439.88;5053670;28;20057;-68
2023/04/29 01:46:54;;;;;;;31.45;15.77;;;;;;;-143.48;100.00;118439.88;5053783;28;20033;-68
2023/04/29 01:49:29;;;;;;;32.50;14.77;;;;;;;-143.48;100.00;118439.88;5035990;28;20074;-68
2023/04/29 01:51:54;;;;;;;23.52;13.68;;;;;;;-143.48;99.46;118439.88;5053812;28;20370;-67
2023/04/29 01:54:21;;;;;;;30.50;14.68;;;;;;;-143.48;99.48;118439.88;5053756;28;20075;-68
2023/04/29 01:56:47;;;;;;;30.08;14.45;;;;;;;-143.48;99.74;118439.88;5053601;28;20329;-68
2023/04/29 01:59:12;;;;;;;29.73;15.25;;;;;;;-143.48;99.61;118439.88;5054238;28;20104;-68
2023/04/29 02:01:37;;;;;;;27.02;13.60;;;;;;;-143.48;99.70;118439.88;5053652;28;20031;-69
2023/04/29 02:04:03;;;;;;;28.08;14.27;;;;;;;-143.48;99.35;118439.88;5053943;28;20060;-69
2023/04/29 02:06:30;;;;;;;37.15;14.45;;;;;;;-143.48;99.48;118439.88;5054134;28;20083;-68
2023/04/29 02:08:56;;;;;;;28.85;14.13;;;;;;;-143.48;99.55;118439.88;5057941;28;20536;-68
2023/04/29 02:11:21;;;;;;;26.08;14.52;;;;;;;-143.48;99.83;118439.88;5057765;28;20028;-68
2023/04/29 02:13:47;;;;;;;26.65;14.02;;;;;;;-143.48;99.89;118439.88;5057955;28;20459;-68
2023/04/29 02:16:14;;;;;;;27.40;14.40;;;;;;;-143.48;99.35;118439.88;5057667;28;20388;-68
2023/04/29 02:18:39;;;;;;;29.35;14.57;;;;;;;-143.48;99.44;118439.88;5057629;28;20056;-70
2023/04/29 02:21:05;;;;;;;29.40;13.93;;;;;;;-143.48;99.53;118439.88;5057575;28;20056;-69
2023/04/29 02:23:31;;;;;;;29.10;14.10;;;;;;;-143.48;99.63;118439.88;5057277;28;20021;-69
2023/04/29 02:25:56;;;;;;;26.50;14.45;;;;;;;-143.48;99.79;118439.88;5057357;28;20020;-69
2023/04/29 02:28:24;;;;;;;30.55;14.93;;;;;;;-143.48;100.00;118439.88;5057206;28;20047;-70
2023/04/29 02:30:50;;;;;;;32.60;15.75;;;;;;;-143.48;100.00;118439.88;5057100;28;20021;-68
2023/04/29 02:33:16;;;;;;;34.13;16.20;;;;;;;-143.48;100.00;118439.88;5039250;28;20353;-67
2023/04/29 02:35:41;;;;;;;27.42;14.98;;;;;;;-143.48;100.00;118439.88;5039660;28;20021;-68
2023/04/29 02:38:07;;;;;;;32.33;15.43;;;;;;;-143.48;100.00;118439.88;5057146;28;20044;-67
2023/04/29 02:40:32;;;;;;;34.95;15.32;;;;;;;-143.48;100.00;118439.88;5057126;28;20029;-68
2023/04/29 02:42:57;;;;;;;29.45;15.32;;;;;;;-143.48;100.00;118439.88;5057222;28;20360;-68
2023/04/29 02:45:22;;;;;;;28.02;15.20;;;;;;;-143.48;100.00;118439.88;5057189;28;20103;-68
2023/04/29 02:47:48;;;;;;;30.73;14.73;;;;;;;-143.48;100.00;118439.88;5057287;28;20112;-68
2023/04/29 02:50:13;;;;;;;29.75;15.50;;;;;;;-143.48;100.00;118439.88;5057206;28;20025;-68
2023/04/29 02:52:40;;;;;;;34.90;16.13;;;;;;;-143.48;100.00;118439.88;5039169;28;20021;-69
2023/04/29 02:55:06;;;;;;;26.65;14.85;;;;;;;-143.48;100.00;118439.88;5056937;28;20040;-68
2023/04/29 02:57:32;;;;;;;31.02;15.38;;;;;;;-143.48;100.00;118439.88;5038780;28;20032;-68
2023/04/29 02:59:58;;;;;;;29.65;15.10;;;;;;;-143.48;100.00;118439.88;5038876;28;20021;-68
2023/04/29 03:02:23;;;;;;;33.90;15.80;;;;;;;-143.48;100.00;118439.88;5038923;28;20017;-68
2023/04/29 03:04:48;;;;;;;32.92;14.90;;;;;;;-143.48;99.68;118439.88;5038143;28;20028;-68
2023/04/29 03:07:16;;;;;;;30.20;15.23;;;;;;;-143.48;99.48;118439.88;5056527;28;20029;-69
2023/04/29 03:09:41;;;;;;;34.83;15.45;;;;;;;-143.48;98.71;118439.88;5057089;28;20040;-67
2023/04/29 03:12:06;;;;;;;28.85;14.52;;;;;;;-143.48;99.35;118439.88;5038836;28;20025;-69
2023/04/29 03:14:32;;;;;;;27.60;14.68;;;;;;;-143.48;98.26;118439.88;5056693;28;20032;-69
2023/04/29 03:16:57;;;;;;;33.72;14.95;;;;;;;-143.48;98.76;118439.88;5038636;28;20086;-69
2023/04/29 03:19:22;;;;;;;29.88;15.38;;;;;;;-143.48;98.79;118439.88;5055591;28;20485;-69
2023/04/29 03:21:48;;;;;;;30.13;15.40;;;;;;;-143.48;98.54;118439.88;5056348;28;20384;-69
2023/04/29 03:24:13;;;;;;;28.23;15.05;;;;;;;-143.48;98.55;118439.88;5056317;28;20032;-69
2023/04/29 03:26:39;;;;;;;29.13;15.02;;;;;;;-143.48;97.99;118439.88;5056259;28;20027;-69
2023/04/29 03:29:04;;;;;;;29.17;14.38;;;;;;;-143.48;98.29;118439.88;5056185;28;20052;-69
2023/04/29 03:31:30;;;;;;;34.60;14.90;;;;;;;-143.48;98.62;118439.88;5038288;28;20100;-70
2023/04/29 03:33:55;;;;;;;33.80;15.50;;;;;;;-143.48;98.04;118439.88;5056349;28;20032;-68
2023/04/29 03:36:20;;;;;;;32.30;14.88;;;;;;;-143.48;98.24;118439.88;5056401;28;20523;-69
2023/04/29 03:38:45;;;;;;;30.50;15.07;;;;;;;-143.48;97.78;118439.88;5056561;28;20119;-69
2023/04/29 03:41:11;;;;;;;32.80;15.63;;;;;;;-143.48;97.99;118439.88;5056200;28;20086;-69
2023/04/29 03:43:36;;;;;;;26.80;14.95;;;;;;;-143.48;97.67;118439.88;5055997;28;20528;-69
2023/04/29 03:46:01;;;;;;;33.28;16.25;;;;;;;-143.48;97.51;118439.88;5035015;28;20121;-69
2023/04/29 03:48:27;;;;;;;28.55;15.05;;;;;;;-143.48;97.79;118439.88;5036283;28;20017;-69
2023/04/29 03:50:52;;;;;;;29.98;15.45;;;;;;;-143.48;97.85;118439.88;5036527;28;20029;-69
2023/04/29 03:53:17;;;;;;;30.92;15.52;;;;;;;-143.48;98.55;118439.88;5036048;28;20101;-68
2023/04/29 03:55:43;;;;;;;31.88;15.95;;;;;;;-143.48;98.12;118439.88;5034782;28;20026;-68
2023/04/29 03:58:08;;;;;;;33.00;15.68;;;;;;;-143.48;98.76;118439.88;5035718;28;20022;-68
2023/04/29 04:00:34;;;;;;;33.42;15.65;;;;;;;-143.48;99.18;118439.88;5036009;28;20044;-68
2023/04/29 04:02:59;;;;;;;29.15;15.60;;;;;;;-143.48;99.23;118439.88;5035941;28;20040;-68
2023/04/29 04:05:25;;;;;;;30.88;14.68;;;;;;;-143.48;98.61;118439.88;5034966;28;20037;-68
2023/04/29 04:07:53;;;;;;;26.23;15.05;;;;;;;-143.48;98.03;118439.88;5036495;28;20109;-68
2023/04/29 04:10:18;;;;;;;31.60;14.63;;;;;;;-143.48;98.15;118439.88;5035571;28;20047;-69
2023/04/29 04:12:44;;;;;;;29.42;15.18;;;;;;;-143.48;98.25;118439.88;5036926;28;20435;-69
2023/04/29 04:15:10;;;;;;;30.48;14.05;;;;;;;-143.48;97.99;118439.88;5037059;28;20021;-68
2023/04/29 04:17:35;;;;;;;31.55;15.40;;;;;;;-143.48;98.79;118439.88;5037096;28;20065;-70
2023/04/29 04:20:01;;;;;;;22.63;14.35;;;;;;;-143.48;97.94;118439.88;5038249;28;20108;-70
2023/04/29 04:22:26;;;;;;;34.85;14.95;;;;;;;-143.48;97.95;118439.88;5035609;28;20029;-70
2023/04/29 04:24:54;;;;;;;30.25;14.32;;;;;;;-143.48;98.26;118439.88;5041800;28;20025;-70
2023/04/29 04:27:19;;;;;;;28.48;14.38;;;;;;;-143.48;97.29;118439.88;5048534;28;20102;-69
2023/04/29 04:29:44;;;;;;;27.73;13.27;;;;;;;-143.48;96.93;118439.88;5048990;28;20025;-69
2023/04/29 04:32:09;;;;;;;26.73;12.68;;;;;;;-143.48;95.46;118439.88;5049450;28;20018;-68
2023/04/29 04:34:35;;;;;;;21.92;12.02;;;;;;;-143.48;94.96;118439.88;5050079;28;20029;-68
2023/04/29 04:37:01;;;;;;;21.50;11.32;;;;;;;-143.48;93.92;118439.88;5050064;28;20025;-68
2023/04/29 04:39:26;;;;;;;17.83;10.65;;;;;;;-143.48;92.50;118439.88;5049807;28;20032;-69
2023/04/29 04:41:52;;;;;;;20.17;10.75;;;;;;;-143.48;92.78;118439.88;5048734;28;20021;-68
2023/04/29 04:44:17;;;;;;;21.58;10.48;;;;;;;-143.48;92.94;118439.88;5051864;28;20057;-68
2023/04/29 04:46:42;;;;;;;19.33;11.15;;;;;;;-143.48;93.56;118439.88;5068832;28;20028;-70
2023/04/29 04:49:08;;;;;;;19.23;10.85;;;;;;;-143.48;93.76;118439.88;5073337;28;20021;-69
2023/04/29 04:51:33;;;;;;;20.55;11.00;;;;;;;-143.48;94.86;118439.88;5073040;28;20036;-70
2023/04/29 04:53:58;;;;;;;20.75;10.75;;;;;;;-143.48;94.99;118439.88;5073191;28;20033;-71
2023/04/29 04:56:23;;;;;;;23.55;11.90;;;;;;;-143.48;95.90;118439.88;5073336;28;20017;-70
2023/04/29 04:58:49;;;;;;;24.40;13.18;;;;;;;-143.48;96.76;118439.88;5072561;28;20040;-69
2023/04/29 05:01:14;;;;;;;28.80;13.57;;;;;;;-143.48;97.19;118439.88;5073973;28;20028;-69
2023/04/29 05:03:39;;;;;;;26.85;13.75;;;;;;;-143.48;98.80;118439.88;5073832;28;20025;-68
2023/04/29 05:06:05;;;;;;;27.40;14.65;;;;;;;-143.48;98.32;118439.88;5063798;28;20093;-69
2023/04/29 05:08:30;;;;;;;29.52;14.88;;;;;;;-143.48;98.23;118439.88;5059322;28;20338;-68
2023/04/29 05:10:57;;;;;;;23.95;14.45;;;;;;;-143.48;98.18;118439.88;5040614;28;20064;-69
2023/04/29 05:13:24;;;;;;;25.88;14.60;;;;;;;-143.48;98.08;118439.88;5057840;28;20048;-69
2023/04/29 05:15:49;;;;;;;26.95;14.05;;;;;;;-143.48;97.60;118439.88;5056741;28;20479;-67
2023/04/29 05:18:15;;;;;;;25.80;13.63;;;;;;;-143.48;97.91;118439.88;5039386;28;20051;-67
2023/04/29 05:20:40;;;;;;;28.63;13.68;;;;;;;-143.48;97.26;118439.88;5056741;28;20048;-68
2023/04/29 05:23:05;;;;;;;26.60;13.98;;;;;;;-143.48;97.25;118439.88;5055549;28;20102;-68
2023/04/29 05:25:31;;;;;;;22.08;13.02;;;;;;;-143.48;96.63;118439.88;5037644;28;20021;-69
2023/04/29 05:27:56;;;;;;;24.30;12.85;;;;;;;-143.48;95.96;118439.88;5055124;28;20053;-68
2023/04/29 05:30:22;;;;;;;27.33;13.88;;;;;;;-143.48;95.96;118439.88;5055041;28;20028;-68
2023/04/29 05:32:50;;;;;;;26.65;12.85;;;;;;;-143.48;95.88;118439.88;5054422;28;20032;-68
2023/04/29 05:35:15;;;;;;;26.30;12.55;;;;;;;-143.48;96.29;118439.88;5054592;28;20036;-68
2023/04/29 05:37:41;;;;;;;23.05;12.43;;;;;;;-143.48;95.78;118439.88;5054526;28;20445;-69
2023/04/29 05:40:07;;;;;;;24.55;12.73;;;;;;;-143.48;95.69;118439.88;5054257;28;20029;-69
2023/04/29 05:42:32;;;;;;;28.88;12.75;;;;;;;-143.48;95.57;118439.88;5035903;28;20472;-69
2023/04/29 05:44:58;;;;;;;26.30;12.75;;;;;;;-143.48;95.75;118439.88;5054019;28;20056;-68
2023/04/29 05:47:23;;;;;;;24.73;12.55;;;;;;;-143.48;94.69;118439.88;5038458;28;20471;-69
2023/04/29 05:49:48;;;;;;;22.95;12.40;;;;;;;-143.48;95.00;118439.88;5040715;28;20036;-68
2023/04/29 05:52:14;;;;;;;28.13;12.75;;;;;;;-143.48;95.08;118439.88;5058583;28;20056;-68
2023/04/29 05:54:40;;;;;;;24.63;12.70;;;;;;;-143.48;94.18;118439.88;5057736;28;20032;-68
2023/04/29 05:57:06;;;;;;;29.05;13.20;;;;;;;-143.48;94.20;118439.88;5039493;28;20044;-69
2023/04/29 05:59:32;;;;;;;29.02;12.77;;;;;;;-143.48;93.89;118439.88;5040422;28;20060;-69
2023/04/29 06:01:58;;;;;;;27.73;12.32;;;;;;;-143.48;93.59;118439.88;5038564;28;20093;-68
2023/04/29 06:04:24;;;;;;;23.25;12.73;;;;;;;-143.48;93.40;118439.88;5055035;28;20025;-68
2023/04/29 06:06:50;;;;;;;24.30;11.88;;;;;;;-143.48;92.70;118439.88;5070007;28;20040;-70
2023/04/29 06:09:17;;;;;;;25.33;12.35;;;;;;;-143.48;92.23;118439.88;5052743;28;20025;-70
2023/04/29 06:11:43;;;;;;;23.88;11.77;;;;;;;-143.48;91.76;118439.88;5052117;28;20055;-71
2023/04/29 06:14:09;;;;;;;25.13;11.90;;;;;;;-143.48;88.90;118439.88;5051956;28;20035;-69
2023/04/29 06:16:35;;;;;;;27.23;11.98;;;;;;;-143.48;87.54;118439.88;5070388;28;20029;-69
2023/04/29 06:19:01;;;;;;;22.00;11.90;;;;;;;-143.48;84.08;118439.88;5052664;28;20043;-70
2023/04/29 06:21:27;;;;;;;22.67;10.82;;;;;;;-143.48;74.05;118439.88;5070589;28;20033;-70
2023/04/29 06:23:53;;;;;;;21.33;10.30;;;;;;;-143.48;75.76;118439.88;5070149;28;20044;-69
2023/04/29 06:26:19;;;;;;;20.23;10.25;;;;;;;-143.48;79.36;118439.88;5052905;28;20021;-70
2023/04/29 06:28:46;;;;;;;18.70;10.10;;;;;;;-143.48;82.60;118439.88;5052535;28;20028;-70
2023/04/29 06:31:11;;;;;;;22.67;10.70;;;;;;;-143.48;83.28;118439.88;5056657;28;20375;-69
2023/04/29 06:33:37;;;;;;;22.02;11.52;;;;;;;-143.48;85.66;118439.88;5053244;28;20033;-70
2023/04/29 06:36:03;;;;;;;20.17;10.50;;;;;;;-143.48;84.50;118439.88;5036489;28;20369;-69
2023/04/29 06:38:28;;;;;;;20.80;10.90;;;;;;;-143.48;85.91;118439.88;5036695;28;20029;-69
2023/04/29 06:40:54;;;;;;;24.85;11.07;;;;;;;-143.48;84.07;118439.88;5035792;28;20025;-69
2023/04/29 06:43:20;;;;;;;24.40;10.73;;;;;;;-143.48;83.43;118439.88;5035918;28;20358;-70
2023/04/29 06:45:48;;;;;;;26.90;11.27;;;;;;;-143.48;85.54;118439.88;5042969;28;20060;-71
2023/04/29 06:48:14;;;;;;;22.40;11.18;;;;;;;-143.48;86.12;118439.88;5040107;28;20021;-69
2023/04/29 06:50:48;;;;;;;19.40;10.60;;;;;;;-143.48;85.86;118439.88;5053581;28;20103;-69
2023/04/29 06:53:13;;;;;;;17.98;10.13;;;;;;;-143.48;80.74;118439.88;5037287;28;20025;-70
2023/04/29 06:55:39;;;;;;;23.00;10.40;;;;;;;-143.48;77.15;118439.88;5063517;28;20033;-69
2023/04/29 06:58:04;;;;;;;24.90;9.80;;;;;;;-143.48;74.07;118439.88;5062044;28;20024;-68
2023/04/29 07:00:29;;;;;;;23.65;10.20;;;;;;;-143.48;64.42;118439.88;5039084;28;20024;-68
2023/04/29 07:02:57;;;;;;;22.88;9.98;;;;;;;-143.48;64.48;118439.88;5057370;28;20036;-69
2023/04/29 07:05:23;;;;;;;21.40;9.88;;;;;;;-143.48;69.89;118439.88;5058025;28;20370;-69
2023/04/29 07:07:48;;;;;;;19.23;10.00;;;;;;;-143.48;68.96;118439.88;5038671;28;20028;-69
2023/04/29 07:10:13;;;;;;;23.52;10.10;;;;;;;-143.48;64.16;118439.88;5038912;28;20025;-69
2023/04/29 07:12:39;;;;;;;17.52;9.35;;;;;;;-143.48;69.21;118439.88;5042356;28;20017;-70
2023/04/29 07:15:05;;;;;;;18.80;9.95;;;;;;;-143.48;70.29;118439.88;5057050;28;20538;-69
2023/04/29 07:17:30;;;;;;;16.05;9.23;;;;;;;-143.48;68.66;118439.88;5038679;28;20025;-69
2023/04/29 07:19:55;;;;;;;20.08;10.00;;;;;;;-143.48;72.97;118439.88;5056744;28;20429;-69
2023/04/29 07:22:21;;;;;;;24.02;10.07;;;;;;;-143.48;65.29;118439.88;5038542;28;20206;-69
2023/04/29 07:24:46;;;;;;;16.85;8.95;;;;;;;-143.48;59.31;118439.88;5056498;28;20029;-69
2023/04/29 07:27:12;;;;;;;14.63;9.00;;;;;;;-143.48;66.59;118439.88;5038981;28;20033;-69
2023/04/29 07:29:37;;;;;;;19.17;9.10;;;;;;;-143.48;56.30;118439.88;5056084;28;20025;-69
2023/04/29 07:32:02;;;;;;;18.60;8.75;;;;;;;-143.48;60.91;118439.88;5056568;28;20036;-69
2023/04/29 07:34:28;;;;;;;18.92;8.88;;;;;;;-143.48;60.25;118439.88;5058649;28;20021;-68
2023/04/29 07:36:53;;;;;;;19.38;9.23;;;;;;;-143.48;60.78;118439.88;5039357;28;20079;-68
2023/04/29 07:39:18;;;;;;;16.83;8.57;;;;;;;-143.48;56.94;118439.88;5038347;28;20017;-69
2023/04/29 07:41:44;;;;;;;18.92;9.00;;;;;;;-143.48;59.76;118439.88;5056257;28;20068;-69
2023/04/29 07:44:09;;;;;;;21.38;8.98;;;;;;;-143.48;62.14;118439.88;5055789;28;20100;-70
2023/04/29 07:46:35;;;;;;;17.58;8.82;;;;;;;-143.48;66.70;118439.88;5055694;28;20036;-69
2023/04/29 07:49:00;;;;;;;18.15;8.63;;;;;;;-143.48;69.04;118439.88;5056269;28;20017;-69
2023/04/29 07:51:27;;;;;;;19.90;8.98;;;;;;;-143.48;70.08;118439.88;5039048;28;20055;-69
2023/04/29 07:53:53;;;;;;;20.75;8.60;;;;;;;-143.48;69.63;118439.88;5058293;28;20031;-69
2023/04/29 07:56:20;;;;;;;21.05;9.23;;;;;;;-143.48;69.99;118439.88;5057472;28;20107;-70
2023/04/29 07:58:45;;;;;;;18.63;8.70;;;;;;;-143.48;70.32;118439.88;5058686;28;20048;-69
2023/04/29 08:01:11;;;;;;;18.38;8.40;;;;;;;-143.48;69.96;118439.88;5061520;28;20025;-68
2023/04/29 08:03:37;;;;;;;16.35;8.68;;;;;;;-143.48;71.87;118439.88;5042161;28;20535;-68
2023/04/29 08:06:03;;;;;;;19.00;9.35;;;;;;;-143.48;71.58;118439.88;5055407;28;20028;-68
2023/04/29 08:08:30;;;;;;;18.40;8.82;;;;;;;-143.48;73.05;118439.88;5057531;28;20021;-69
2023/04/29 08:10:55;;;;;;;15.88;8.98;;;;;;;-143.48;70.77;118439.88;5040428;28;20029;-69
2023/04/29 08:13:20;;;;;;;18.92;8.32;;;;;;;-143.48;66.71;118439.88;5058532;28;20039;-68
2023/04/29 08:15:46;;;;;;;22.23;8.50;;;;;;;-143.48;68.06;118439.88;5038880;28;20028;-68
2023/04/29 08:18:11;;;;;;;18.77;8.43;;;;;;;-143.48;65.76;118439.88;5058775;28;20381;-69
2023/04/29 08:20:36;;;;;;;17.27;8.23;;;;;;;-143.48;65.25;118439.88;5055035;28;20071;-69
2023/04/29 08:23:02;;;;;;;18.23;7.85;;;;;;;-143.48;65.47;118439.88;5054713;28;20105;-68
2023/04/29 08:25:29;;;;;;;15.23;7.28;;;;;;;-143.48;64.20;118439.88;5036788;28;20112;-69
2023/04/29 08:27:54;;;;;;;17.35;7.85;;;;;;;-143.48;65.32;118439.88;5054969;28;20025;-70
2023/04/29 08:30:20;;;;;;;16.73;7.63;;;;;;;-143.48;63.64;118439.88;5054772;28;20055;-69
2023/04/29 08:32:45;;;;;;;15.80;7.90;;;;;;;-143.48;62.79;118439.88;5054973;28;20035;-69
2023/04/29 08:35:11;;;;;;;14.95;7.15;;;;;;;-143.48;63.29;118439.88;5036874;28;20021;-69
2023/04/29 08:37:36;;;;;;;14.18;6.95;;;;;;;-143.48;62.52;118439.88;5036503;28;20024;-68
2023/04/29 08:40:02;;;;;;;16.90;7.00;;;;;;;-143.48;63.37;118439.88;5054377;28;20025;-69
2023/04/29 08:42:36;;;;;;;12.98;7.30;;;;;;;-143.48;62.16;118439.88;5036756;28;20521;-70
2023/04/29 08:45:03;;;;;;;15.50;6.82;;;;;;;-143.48;60.30;118439.88;5036076;28;20045;-70
2023/04/29 08:47:30;;;;;;;14.77;6.85;;;;;;;-143.48;58.27;118439.88;5036411;28;20100;-69
2023/04/29 08:50:00;;;;;;;12.43;6.47;;;;;;;-143.48;57.40;118439.88;5036176;28;20528;-68
2023/04/29 08:52:25;;;;;;;14.90;6.80;;;;;;;-143.48;58.85;118439.88;5054303;28;20100;-69
2023/04/29 08:54:51;;;;;;;13.93;6.60;;;;;;;-143.48;59.57;118439.88;5036549;28;20056;-69
2023/04/29 08:57:16;;;;;;;11.60;6.50;;;;;;;-143.48;55.54;118439.88;5036516;28;20432;-69
2023/04/29 08:59:42;;;;;;;13.93;7.10;;;;;;;-143.48;57.63;118439.88;5054208;28;20025;-70
2023/04/29 09:02:15;;;;;;;12.73;6.90;;;;;;;-143.48;54.95;118439.88;5054021;28;20100;-69
2023/04/29 09:04:52;;;;;;;12.88;6.32;;;;;;;-143.48;55.92;118439.88;5036087;28;20029;-69
2023/04/29 09:07:18;;;;;;;15.70;5.90;;;;;;;-143.48;56.85;118439.88;5036147;28;20032;-69
2023/04/29 09:09:44;;;;;;;18.13;6.57;;;;;;;-143.48;56.72;118439.88;5054003;28;20353;-68
2023/04/29 09:12:09;;;;;;;10.50;6.15;;;;;;;-143.48;59.18;118439.88;5036084;28;20358;-68
2023/04/29 09:14:38;;;;;;;14.90;7.20;;;;;;;-143.48;59.56;118439.88;5053983;28;20032;-70
2023/04/29 09:17:03;;;;;;;13.57;6.40;;;;;;;-143.48;56.40;118439.88;5035566;28;20032;-68
2023/04/29 09:19:30;;;;;;;12.95;5.93;;;;;;;-143.48;53.69;118439.88;5035736;28;20025;-68
2023/04/29 09:21:56;;;;;;;10.60;6.00;;;;;;;-143.48;55.28;118439.88;5035632;28;20074;-69
2023/04/29 09:24:25;;;;;;;14.70;6.18;;;;;;;-143.48;55.92;118439.88;5053633;28;20095;-71
2023/04/29 09:26:51;;;;;;;14.13;6.28;;;;;;;-143.48;55.01;118439.88;5053957;28;20163;-69
2023/04/29 09:29:17;;;;;;;13.55;6.53;;;;;;;-143.48;52.12;118439.88;5052784;28;20108;-68
2023/04/29 09:31:43;;;;;;;9.80;6.53;;;;;;;-143.48;52.24;118439.88;5036259;28;20025;-69
2023/04/29 09:34:10;;;;;;;11.45;5.85;;;;;;;-143.48;48.61;118439.88;5053830;28;20036;-68
2023/04/29 09:36:44;;;;;;;11.52;6.15;;;;;;;-143.48;49.64;118439.88;5053747;28;20115;-68
2023/04/29 09:39:15;;;;;;;17.13;6.70;;;;;;;-143.48;50.19;118439.88;5053734;28;20032;-69
2023/04/29 09:41:55;;;;;;;17.40;5.70;;;;;;;-143.48;49.15;118439.88;5053697;28;20029;-69
2023/04/29 09:44:25;;;;;;;11.90;6.05;;;;;;;-143.48;45.95;118439.88;5053503;28;20119;-70
2023/04/29 09:46:56;;;;;;;9.10;5.38;;;;;;;-143.48;47.14;118439.88;5052597;28;20051;-69
2023/04/29 09:49:31;;;;;;;13.38;6.30;;;;;;;-143.48;47.92;118439.88;5034552;28;20021;-68
2023/04/29 09:52:01;;;;;;;11.88;5.80;;;;;;;-143.48;49.39;118439.88;5034497;28;20024;-70
2023/04/29 09:54:29;;;;;;;12.27;5.90;;;;;;;-143.48;48.68;118439.88;5052453;28;20071;-70
2023/04/29 09:56:56;;;;;;;10.50;5.70;;;;;;;-143.48;49.06;118439.88;5052586;28;20120;-71
2023/04/29 09:59:25;;;;;;;10.55;6.28;;;;;;;-143.48;46.52;118439.88;5034353;28;20101;-71
2023/04/29 10:01:55;;;;;;;11.07;5.63;;;;;;;-143.48;46.27;118439.88;5053448;28;20033;-70
2023/04/29 10:04:22;;;;;;;8.35;5.78;;;;;;;-143.48;45.13;118439.88;5053678;28;20425;-69
2023/04/29 10:06:50;;;;;;;11.35;5.53;;;;;;;-143.48;46.11;118439.88;5053505;28;20017;-69
2023/04/29 10:09:17;;;;;;;9.43;5.43;;;;;;;-143.48;46.99;118439.88;5035712;28;20017;-69
2023/04/29 10:11:47;;;;;;;9.38;5.00;;;;;;;-143.48;46.87;118439.88;5035600;28;20048;-70
2023/04/29 10:14:17;;;;;;;12.38;5.68;;;;;;;-143.48;45.51;118439.88;5035601;28;20033;-69
2023/04/29 10:17:15;;;;;;;13.00;5.90;;;;;;;-143.48;46.96;118439.88;5053606;28;20427;-69
2023/04/29 10:19:59;;;;;;;9.63;5.05;;;;;;;-143.48;43.43;118439.88;5053416;28;20025;-70
2023/04/29 10:22:44;;;;;;;8.15;4.68;;;;;;;-143.48;43.96;118439.88;5035863;28;20029;-69
2023/04/29 10:25:10;;;;;;;9.90;4.75;;;;;;;-143.48;45.03;118439.88;5053245;28;20029;-69
2023/04/29 10:27:36;;;;;;;11.35;5.07;;;;;;;-143.48;43.94;118439.88;5056893;28;20028;-70
2023/04/29 10:30:03;;;;;;;8.95;4.90;;;;;;;-143.48;42.59;118439.88;5057766;28;20028;-70
2023/04/29 10:32:29;;;;;;;9.23;4.72;;;;;;;-143.48;45.70;118439.88;5057303;28;20025;-70
2023/04/29 10:34:56;;;;;;;10.20;5.00;;;;;;;-143.48;44.55;118439.88;5039709;28;20032;-70
2023/04/29 10:37:22;;;;;;;13.25;4.88;;;;;;;-143.48;45.32;118439.88;5057282;28;20364;-71
2023/04/29 10:40:00;;;;;;;9.55;4.55;;;;;;;-143.48;44.05;118439.88;5057485;28;20029;-71
2023/04/29 10:42:38;;;;;;;9.65;4.80;;;;;;;-143.48;43.17;118439.88;5057213;28;20039;-71
2023/04/29 10:45:23;;;;;;;12.23;5.30;;;;;;;-143.48;44.39;118439.88;5056895;28;20041;-72
2023/04/29 10:48:01;;;;;;;12.48;5.70;;;;;;;-143.48;44.51;118439.88;5056873;28;20021;-70
2023/04/29 10:50:48;;;;;;;10.15;5.30;;;;;;;-143.48;43.28;118439.88;5056596;28;20033;-70
2023/04/29 10:53:14;;;;;;;9.27;4.95;;;;;;;-143.48;43.90;118439.88;5039216;28;20449;-71
2023/04/29 10:55:40;;;;;;;8.20;4.78;;;;;;;-143.48;43.40;118439.88;5039120;28;20029;-71